Time;durP1;ratioP1;P1;durP2;ratioP2;P2;SDS_P1;SDS_P2;PMS_P1;PMS_P2;Temp;Humidity;BMP_temperature;BMP_pressure;BME280_temperature;BME280_humidity;BME280_pressure;Samples;Min_cycle;Max_cycle;Signal;HPM_P1;HPM_P2
2023/07/31 00:00:28;;;;;;;3.72;3.42;;;19.00;99.90;;;;;;5087202;28;20095;-79
2023/07/31 00:02:54;;;;;;;4.60;3.85;;;18.90;99.90;;;;;;5068530;28;20031;-79
2023/07/31 00:05:20;;;;;;;5.68;3.92;;;19.00;99.90;;;;;;5059399;28;20061;-80
2023/07/31 00:07:46;;;;;;;3.63;3.33;;;18.90;99.90;;;;;;5104728;28;20039;-79
2023/07/31 00:10:12;;;;;;;6.07;3.80;;;19.00;99.90;;;;;;5087442;28;20039;-80
2023/07/31 00:12:43;;;;;;;4.57;3.95;;;18.90;99.90;;;;;;5100787;28;20055;-81
2023/07/31 00:15:09;;;;;;;7.10;3.88;;;18.90;99.90;;;;;;5085888;28;20015;-82
2023/07/31 00:17:36;;;;;;;5.05;4.03;;;18.90;99.90;;;;;;5074735;28;20046;-82
2023/07/31 00:20:03;;;;;;;4.40;3.97;;;18.70;99.90;;;;;;5074801;28;20210;-83
2023/07/31 00:22:29;;;;;;;5.68;3.90;;;18.80;99.90;;;;;;5067170;28;20107;-81
2023/07/31 00:24:56;;;;;;;5.05;3.55;;;18.90;99.90;;;;;;5047663;28;20046;-81
2023/07/31 00:27:22;;;;;;;4.05;3.42;;;18.80;99.90;;;;;;5076343;28;20026;-81
2023/07/31 00:29:48;;;;;;;5.88;3.50;;;18.80;99.90;;;;;;5064629;28;20564;-80
2023/07/31 00:32:14;;;;;;;3.42;2.50;;;18.80;99.90;;;;;;5067780;28;20122;-80
2023/07/31 00:34:39;;;;;;;3.75;3.17;;;18.60;99.90;;;;;;5085822;28;20084;-80
2023/07/31 00:37:06;;;;;;;4.07;2.80;;;18.70;99.90;;;;;;5087372;28;20032;-80
2023/07/31 00:39:33;;;;;;;3.88;3.47;;;18.70;99.90;;;;;;5071088;28;20100;-81
2023/07/31 00:41:59;;;;;;;4.47;3.30;;;18.50;99.90;;;;;;5086961;28;20030;-81
2023/07/31 00:44:24;;;;;;;3.97;3.45;;;18.60;99.90;;;;;;5087297;28;20043;-81
2023/07/31 00:46:51;;;;;;;4.25;3.80;;;18.70;99.90;;;;;;5052446;28;20253;-81
2023/07/31 00:49:17;;;;;;;4.60;3.35;;;18.60;99.90;;;;;;5089359;28;20195;-81
2023/07/31 00:51:43;;;;;;;4.93;3.55;;;18.60;99.90;;;;;;5051876;28;20043;-81
2023/07/31 00:54:10;;;;;;;4.30;3.90;;;18.60;99.90;;;;;;5065026;28;20028;-82
2023/07/31 00:56:37;;;;;;;4.30;3.40;;;18.50;99.90;;;;;;5054849;28;20035;-82
2023/07/31 00:59:03;;;;;;;6.32;3.70;;;18.30;99.90;;;;;;5069637;28;20019;-82
2023/07/31 01:01:29;;;;;;;6.50;3.92;;;18.50;99.90;;;;;;5087394;28;20031;-82
2023/07/31 01:04:01;;;;;;;5.40;4.07;;;18.50;99.90;;;;;;5100910;28;20038;-82
2023/07/31 01:06:48;;;;;;;4.30;3.78;;;18.40;99.90;;;;;;5092635;28;20251;-81
2023/07/31 01:09:33;;;;;;;8.15;4.07;;;18.30;99.90;;;;;;5076933;28;20309;-81
2023/07/31 01:12:03;;;;;;;3.95;3.55;;;18.50;99.90;;;;;;5067179;28;20417;-81
2023/07/31 01:14:35;;;;;;;4.07;3.67;;;18.40;99.90;;;;;;5082524;28;20039;-82
2023/07/31 01:17:01;;;;;;;4.05;3.53;;;18.40;99.90;;;;;;5095495;28;20107;-82
2023/07/31 01:19:27;;;;;;;4.03;3.55;;;18.50;99.90;;;;;;5050992;28;20218;-82
2023/07/31 01:22:28;;;;;;;4.80;3.40;;;18.50;99.90;;;;;;5070781;28;20098;-82
2023/07/31 01:25:12;;;;;;;3.75;3.25;;;18.50;99.90;;;;;;5070207;28;20050;-79
2023/07/31 01:27:50;;;;;;;4.32;3.05;;;18.50;99.90;;;;;;5103829;28;20042;-82
2023/07/31 01:30:22;;;;;;;5.15;3.10;;;18.30;99.90;;;;;;5101205;28;20038;-82
2023/07/31 01:32:49;;;;;;;3.88;2.78;;;18.50;99.90;;;;;;5071532;28;20485;-82
2023/07/31 01:38:38;;;;;;;3.05;2.70;;;18.60;99.90;;;;;;5101015;28;20046;-81
2023/07/31 01:41:04;;;;;;;3.88;3.08;;;18.30;99.90;;;;;;5074368;28;20028;-81
2023/07/31 01:43:49;;;;;;;3.72;2.90;;;18.30;99.90;;;;;;5083796;28;20095;-80
2023/07/31 01:53:32;;;;;;;4.07;2.45;;;18.50;99.90;;;;;;5049097;28;20052;-78
2023/07/31 01:56:54;;;;;;;3.72;2.80;;;18.50;99.90;;;;;;5036348;28;20076;-79
2023/07/31 01:59:56;;;;;;;;;;;;;;;;;;;;;
2023/07/31 02:06:03;;;;;;;3.00;2.70;;;18.60;99.90;;;;;;5098972;28;20051;-79
2023/07/31 02:08:29;;;;;;;2.90;2.60;;;18.20;99.90;;;;;;5058505;28;20058;-78
2023/07/31 02:11:03;;;;;;;3.35;2.65;;;18.20;99.90;;;;;;5078603;28;20040;-78
2023/07/31 02:13:31;;;;;;;3.53;2.45;;;17.80;99.90;;;;;;5071462;28;20035;-78
2023/07/31 02:15:57;;;;;;;2.15;1.95;;;18.00;99.90;;;;;;5097451;28;20043;-78
2023/07/31 02:18:42;;;;;;;4.00;2.20;;;18.60;99.90;;;;;;5080018;28;20235;-78
2023/07/31 02:21:29;;;;;;;2.90;2.05;;;18.70;99.90;;;;;;5065094;28;20091;-77
2023/07/31 02:24:09;;;;;;;3.50;1.92;;;17.90;99.90;;;;;;5045303;28;20020;-77
2023/07/31 02:26:42;;;;;;;2.40;2.00;;;17.50;99.90;;;;;;5066282;28;20905;-77
2023/07/31 02:29:08;;;;;;;2.53;2.33;;;18.00;99.90;;;;;;5049636;28;20025;-78
2023/07/31 02:31:57;;;;;;;2.13;1.92;;;18.80;99.90;;;;;;5083094;28;20211;-77
2023/07/31 02:34:45;;;;;;;2.42;1.88;;;17.90;99.90;;;;;;5077420;28;20035;-77
2023/07/31 02:37:10;;;;;;;2.17;1.73;;;18.10;99.90;;;;;;5072382;28;20029;-77
2023/07/31 02:39:36;;;;;;;2.10;1.90;;;18.70;99.90;;;;;;5065994;28;20060;-77
2023/07/31 02:42:02;;;;;;;2.78;1.73;;;18.40;99.90;;;;;;5049352;28;20067;-75
2023/07/31 02:44:28;;;;;;;2.25;1.60;;;18.40;99.90;;;;;;5055366;28;20083;-78
2023/07/31 02:46:53;;;;;;;1.75;1.45;;;18.80;99.90;;;;;;5077314;28;20051;-75
2023/07/31 02:49:19;;;;;;;3.33;1.40;;;18.30;99.90;;;;;;5054696;28;20226;-76
2023/07/31 02:51:45;;;;;;;1.70;1.55;;;18.30;99.90;;;;;;5021327;28;20067;-76
2023/07/31 02:54:10;;;;;;;2.35;1.58;;;18.00;99.90;;;;;;5045128;28;20040;-75
2023/07/31 02:56:36;;;;;;;1.80;1.40;;;18.10;99.90;;;;;;5041195;28;20028;-75
2023/07/31 02:59:02;;;;;;;1.73;1.50;;;18.90;99.90;;;;;;5045088;28;20031;-75
2023/07/31 03:01:28;;;;;;;2.42;1.42;;;18.20;99.90;;;;;;5074091;28;20044;-75
2023/07/31 03:03:57;;;;;;;1.88;1.33;;;17.70;99.90;;;;;;5065819;28;21151;-75
2023/07/31 03:06:27;;;;;;;2.10;1.50;;;18.30;99.90;;;;;;5073949;28;20111;-76
2023/07/31 03:08:52;;;;;;;2.90;1.30;;;18.80;99.90;;;;;;5029589;28;20052;-76
2023/07/31 03:11:18;;;;;;;2.20;1.30;;;18.60;99.90;;;;;;5016676;28;20028;-77
2023/07/31 03:13:44;;;;;;;1.42;0.90;;;18.70;99.90;;;;;;5050429;28;20040;-77
2023/07/31 03:16:10;;;;;;;1.65;1.40;;;17.60;99.90;;;;;;5044428;28;20064;-76
2023/07/31 03:18:35;;;;;;;2.28;1.30;;;18.00;99.90;;;;;;5048564;28;20032;-77
2023/07/31 03:21:01;;;;;;;1.70;1.30;;;18.70;99.90;;;;;;5077008;28;20109;-75
2023/07/31 03:23:27;;;;;;;1.90;1.38;;;19.00;99.90;;;;;;5029996;28;20039;-76
2023/07/31 03:26:00;;;;;;;1.17;1.00;;;17.70;99.90;;;;;;5057954;28;20046;-76
2023/07/31 03:28:26;;;;;;;2.50;1.55;;;18.40;99.90;;;;;;5047062;28;20046;-76
2023/07/31 03:30:52;;;;;;;1.60;1.25;;;18.60;99.90;;;;;;5051706;28;20036;-77
2023/07/31 03:33:19;;;;;;;1.42;1.30;;;18.30;99.90;;;;;;5061690;28;20086;-76
2023/07/31 03:35:45;;;;;;;1.17;1.00;;;17.40;99.90;;;;;;5058410;28;20095;-75
2023/07/31 03:38:11;;;;;;;2.00;1.20;;;18.70;99.90;;;;;;5073188;28;20126;-75
2023/07/31 03:40:37;;;;;;;2.95;1.13;;;18.90;99.90;;;;;;5044146;28;20311;-75
2023/07/31 03:43:02;;;;;;;2.83;1.30;;;17.90;99.90;;;;;;5028144;28;20074;-76
2023/07/31 03:45:28;;;;;;;1.35;1.13;;;19.20;99.90;;;;;;5012828;28;20027;-76
2023/07/31 03:47:54;;;;;;;1.60;1.40;;;18.40;99.90;;;;;;5012849;28;20103;-75
2023/07/31 03:50:20;;;;;;;1.75;1.25;;;19.00;99.90;;;;;;5064380;28;20036;-74
2023/07/31 03:52:46;;;;;;;2.05;1.40;;;17.40;99.90;;;;;;5047759;28;20258;-74
2023/07/31 03:55:12;;;;;;;1.88;1.20;;;17.60;99.90;;;;;;5082332;28;20040;-74
2023/07/31 03:57:38;;;;;;;2.97;1.25;;;19.30;99.90;;;;;;5063581;28;20119;-74
2023/07/31 04:00:04;;;;;;;1.63;1.13;;;19.30;99.90;;;;;;5092267;28;20032;-74
2023/07/31 04:02:30;;;;;;;2.63;1.58;;;17.70;99.90;;;;;;5047988;28;20044;-75
2023/07/31 04:04:55;;;;;;;2.53;1.27;;;17.30;99.90;;;;;;5064273;28;20024;-74
2023/07/31 04:07:21;;;;;;;3.35;1.50;;;18.20;99.90;;;;;;5090302;28;20307;-75
2023/07/31 04:09:47;;;;;;;2.25;1.40;;;17.50;99.90;;;;;;5059267;28;20040;-74
2023/07/31 04:12:12;;;;;;;4.55;1.60;;;17.50;99.90;;;;;;5096132;28;20069;-74
2023/07/31 04:14:40;;;;;;;5.00;1.50;;;17.60;99.90;;;;;;5098961;28;20032;-73
2023/07/31 04:17:06;;;;;;;6.93;1.98;;;17.50;99.90;;;;;;5059762;28;20070;-74
2023/07/31 04:19:31;;;;;;;3.80;1.58;;;18.60;99.90;;;;;;5069754;28;20310;-74
2023/07/31 04:21:57;;;;;;;1.95;1.38;;;17.50;99.90;;;;;;5083785;28;20036;-74
2023/07/31 04:24:26;;;;;;;2.65;1.45;;;17.70;99.90;;;;;;5076638;28;20055;-74
2023/07/31 04:26:52;;;;;;;1.63;1.23;;;18.50;99.90;;;;;;5081487;28;20071;-74
2023/07/31 04:29:18;;;;;;;1.88;1.42;;;18.30;99.90;;;;;;5082246;28;20028;-73
2023/07/31 04:31:44;;;;;;;1.73;1.20;;;18.40;99.90;;;;;;5051144;28;20227;-73
2023/07/31 04:34:11;;;;;;;2.65;1.20;;;18.10;99.90;;;;;;5079482;28;20063;-74
2023/07/31 04:36:37;;;;;;;2.47;1.60;;;18.50;99.90;;;;;;5081067;28;20354;-74
2023/07/31 04:39:03;;;;;;;2.85;1.30;;;19.10;99.90;;;;;;5065009;28;20032;-75
2023/07/31 04:41:29;;;;;;;1.17;1.02;;;19.30;99.90;;;;;;5098348;28;20190;-74
2023/07/31 04:43:55;;;;;;;1.88;1.45;;;18.00;99.90;;;;;;5059011;28;20025;-74
2023/07/31 04:46:21;;;;;;;2.47;1.00;;;18.00;99.90;;;;;;5070921;28;20124;-74
2023/07/31 04:48:46;;;;;;;1.40;1.17;;;18.10;99.90;;;;;;5079527;28;20051;-74
2023/07/31 04:51:12;;;;;;;1.15;1.00;;;18.50;99.90;;;;;;5078308;28;20040;-73
2023/07/31 04:53:38;;;;;;;1.95;1.50;;;18.80;99.90;;;;;;5045055;28;20040;-73
2023/07/31 04:56:04;;;;;;;1.98;1.13;;;17.70;99.90;;;;;;5087383;28;20492;-73
2023/07/31 04:58:29;;;;;;;1.67;1.17;;;17.60;99.90;;;;;;5063762;28;20412;-74
2023/07/31 05:00:55;;;;;;;2.03;1.08;;;18.30;99.90;;;;;;5097455;28;20103;-74
2023/07/31 05:03:21;;;;;;;1.98;1.20;;;19.60;99.90;;;;;;5079637;28;20066;-75
2023/07/31 05:05:47;;;;;;;3.78;1.02;;;17.70;99.90;;;;;;5082655;28;20059;-76
2023/07/31 05:08:13;;;;;;;1.95;1.10;;;18.10;99.90;;;;;;5099976;28;20032;-75
2023/07/31 05:10:38;;;;;;;1.35;0.88;;;19.10;99.90;;;;;;5070783;28;20063;-75
2023/07/31 05:13:05;;;;;;;1.48;0.98;;;17.70;99.90;;;;;;5086332;28;20040;-75
2023/07/31 05:15:30;;;;;;;1.27;0.90;;;19.20;99.90;;;;;;5062809;28;20036;-75
2023/07/31 05:17:56;;;;;;;3.13;1.10;;;18.50;99.90;;;;;;5045675;28;20043;-75
2023/07/31 05:20:22;;;;;;;2.30;1.02;;;19.10;99.90;;;;;;5080420;28;20060;-75
2023/07/31 05:22:47;;;;;;;1.80;1.10;;;18.50;99.90;;;;;;5096668;28;20074;-75
2023/07/31 05:25:13;;;;;;;2.17;1.00;;;19.30;99.90;;;;;;5096841;28;20027;-75
2023/07/31 05:27:39;;;;;;;3.17;1.10;;;18.50;99.90;;;;;;5096555;28;20094;-72
2023/07/31 05:30:06;;;;;;;1.98;1.13;;;19.60;99.90;;;;;;5093800;28;20051;-75
2023/07/31 05:32:32;;;;;;;1.85;1.10;;;19.60;99.90;;;;;;5087566;28;20036;-76
2023/07/31 05:34:58;;;;;;;1.25;0.73;;;18.40;99.90;;;;;;5054847;28;20088;-75
2023/07/31 05:37:24;;;;;;;2.13;0.80;;;18.50;99.90;;;;;;5068819;28;20036;-75
2023/07/31 05:39:50;;;;;;;1.13;0.80;;;19.40;99.90;;;;;;5063519;28;20092;-73
2023/07/31 05:42:16;;;;;;;1.42;0.85;;;18.20;99.90;;;;;;5098767;28;20043;-75
2023/07/31 05:44:41;;;;;;;2.22;1.33;;;17.80;99.90;;;;;;5079664;28;20111;-75
2023/07/31 05:47:07;;;;;;;1.48;1.00;;;19.20;99.90;;;;;;5098594;28;20051;-75
2023/07/31 05:49:33;;;;;;;1.77;1.00;;;18.70;99.90;;;;;;5063723;28;20060;-76
2023/07/31 05:51:59;;;;;;;1.30;1.00;;;19.60;99.90;;;;;;5059974;28;20316;-77
2023/07/31 05:54:25;;;;;;;2.08;1.20;;;18.50;99.90;;;;;;5070601;28;20032;-77
2023/07/31 05:56:50;;;;;;;2.10;1.08;;;18.40;99.90;;;;;;5046293;28;20299;-77
2023/07/31 05:59:16;;;;;;;14.10;1.38;;;18.10;99.90;;;;;;5065461;28;20035;-76
2023/07/31 06:01:42;;;;;;;2.65;1.33;;;18.10;99.90;;;;;;5083809;28;20047;-76
2023/07/31 06:04:08;;;;;;;1.52;1.15;;;18.90;99.90;;;;;;5088127;28;20256;-74
2023/07/31 06:06:34;;;;;;;1.98;1.20;;;18.20;99.90;;;;;;5079497;28;20318;-75
2023/07/31 06:08:59;;;;;;;2.97;1.50;;;18.70;99.90;;;;;;5085626;28;20036;-74
2023/07/31 06:11:25;;;;;;;1.70;1.50;;;19.80;99.90;;;;;;5094250;28;20063;-74
2023/07/31 06:13:51;;;;;;;2.20;1.55;;;18.00;99.90;;;;;;5098350;28;20028;-73
2023/07/31 06:16:17;;;;;;;1.95;1.42;;;19.00;99.90;;;;;;5098820;28;20095;-73
2023/07/31 06:18:42;;;;;;;1.75;1.25;;;18.70;99.90;;;;;;5090538;28;20097;-74
2023/07/31 06:21:09;;;;;;;2.78;2.00;;;18.20;99.90;;;;;;5071177;28;20112;-74
2023/07/31 06:23:35;;;;;;;3.20;1.85;;;18.20;99.90;;;;;;5087345;28;20040;-75
2023/07/31 06:26:00;;;;;;;3.70;2.00;;;19.70;99.90;;;;;;5088441;28;20082;-75
2023/07/31 06:28:31;;;;;;;3.53;2.00;;;18.20;99.90;;;;;;5075223;28;20024;-74
2023/07/31 06:30:57;;;;;;;5.20;2.10;;;20.20;99.90;;;;;;5077995;28;20126;-74
2023/07/31 06:33:23;;;;;;;4.18;2.67;;;18.30;99.90;;;;;;5080601;28;20222;-73
2023/07/31 06:35:49;;;;;;;6.70;2.85;;;19.30;99.90;;;;;;5094022;28;20056;-73
2023/07/31 06:38:15;;;;;;;5.07;2.58;;;19.60;99.90;;;;;;5082384;28;20254;-74
2023/07/31 06:40:40;;;;;;;6.97;2.90;;;20.20;99.90;;;;;;5080933;28;20137;-73
2023/07/31 06:43:07;;;;;;;8.50;3.10;;;19.60;99.90;;;;;;5096480;28;20070;-74
2023/07/31 06:45:34;;;;;;;7.28;2.90;;;20.20;99.90;;;;;;5099577;28;20071;-74
2023/07/31 06:48:01;;;;;;;10.25;4.00;;;19.80;99.90;;;;;;5099988;28;20210;-73
2023/07/31 06:50:28;;;;;;;12.50;4.57;;;18.80;99.90;;;;;;5095530;28;20047;-74
2023/07/31 06:52:54;;;;;;;11.50;5.15;;;19.80;99.90;;;;;;5091520;28;20109;-74
2023/07/31 06:55:23;;;;;;;12.90;5.18;;;20.60;99.90;;;;;;5097618;28;20031;-73
2023/07/31 06:57:51;;;;;;;16.02;5.43;;;20.70;99.90;;;;;;5098962;28;20039;-73
2023/07/31 07:00:18;;;;;;;19.90;6.18;;;20.30;99.90;;;;;;5066061;28;20081;-74
2023/07/31 07:02:44;;;;;;;18.35;6.75;;;20.10;99.90;;;;;;5079175;28;20411;-73
2023/07/31 07:05:10;;;;;;;16.08;6.30;;;19.10;99.90;;;;;;5077545;28;20028;-73
2023/07/31 07:07:36;;;;;;;16.30;6.57;;;19.70;99.90;;;;;;5096338;28;20044;-74
2023/07/31 07:10:03;;;;;;;17.55;6.10;;;19.10;99.90;;;;;;5090543;28;20032;-73
2023/07/31 07:12:31;;;;;;;22.90;6.70;;;19.90;99.90;;;;;;5076023;28;20214;-73
2023/07/31 07:14:59;;;;;;;18.27;7.05;;;20.80;99.90;;;;;;5099976;28;20040;-74
2023/07/31 07:17:26;;;;;;;16.73;6.50;;;19.70;99.90;;;;;;5102857;28;20044;-73
2023/07/31 07:19:52;;;;;;;18.52;6.63;;;19.80;99.90;;;;;;5102356;28;20036;-74
2023/07/31 07:22:18;;;;;;;16.30;7.63;;;19.80;99.90;;;;;;5085759;28;20032;-74
2023/07/31 07:24:44;;;;;;;20.63;7.45;;;19.40;99.90;;;;;;5082548;28;20044;-73
2023/07/31 07:27:09;;;;;;;18.67;6.68;;;19.90;99.90;;;;;;5102266;28;20042;-75
2023/07/31 07:29:35;;;;;;;20.45;7.47;;;20.20;99.90;;;;;;5083870;28;20062;-74
2023/07/31 07:32:01;;;;;;;20.20;7.03;;;19.10;99.90;;;;;;5101525;28;20085;-73
2023/07/31 07:34:33;;;;;;;22.55;6.55;;;21.00;99.90;;;;;;5100254;28;20077;-72
2023/07/31 07:36:59;;;;;;;18.17;6.25;;;21.50;99.90;;;;;;5075928;28;20031;-72
2023/07/31 07:39:25;;;;;;;21.52;6.97;;;19.00;99.90;;;;;;5084050;28;20032;-73
2023/07/31 07:41:51;;;;;;;17.92;6.82;;;20.80;99.90;;;;;;5080223;28;20028;-73
2023/07/31 07:44:16;;;;;;;22.85;6.75;;;20.40;99.90;;;;;;5077477;28;20032;-73
2023/07/31 07:46:43;;;;;;;16.33;6.18;;;19.50;99.90;;;;;;5076842;28;20358;-72
2023/07/31 07:49:09;;;;;;;16.70;5.93;;;19.90;99.90;;;;;;5083689;28;20079;-73
2023/07/31 07:51:35;;;;;;;11.88;4.40;;;20.20;99.90;;;;;;5084220;28;20179;-74
2023/07/31 07:54:01;;;;;;;11.32;4.60;;;21.10;99.90;;;;;;5068063;28;20103;-73
2023/07/31 07:56:27;;;;;;;10.27;3.60;;;21.10;99.90;;;;;;5084413;28;20055;-73
2023/07/31 07:58:53;;;;;;;10.20;3.28;;;20.80;99.90;;;;;;5064441;28;20110;-73
2023/07/31 08:01:19;;;;;;;5.80;2.90;;;19.30;99.90;;;;;;5082463;28;20322;-73
2023/07/31 08:03:46;;;;;;;7.97;3.13;;;19.00;99.90;;;;;;5099922;28;20024;-73
2023/07/31 08:06:11;;;;;;;6.35;3.08;;;18.90;99.90;;;;;;5101128;28;20092;-72
2023/07/31 08:08:38;;;;;;;8.02;2.72;;;19.80;99.90;;;;;;5084939;28;20024;-72
2023/07/31 08:11:03;;;;;;;6.38;2.55;;;18.90;99.90;;;;;;5101404;28;20073;-73
2023/07/31 08:13:30;;;;;;;5.03;2.55;;;19.40;99.90;;;;;;5073950;28;20099;-74
2023/07/31 08:15:55;;;;;;;3.83;2.33;;;19.40;99.90;;;;;;5100996;28;20042;-72
2023/07/31 08:18:21;;;;;;;4.20;2.08;;;19.60;99.90;;;;;;5097392;28;20032;-72
2023/07/31 08:20:47;;;;;;;3.85;2.38;;;19.20;99.90;;;;;;5099891;28;20153;-72
2023/07/31 08:23:13;;;;;;;4.13;2.00;;;19.50;99.90;;;;;;5081689;28;20036;-73
2023/07/31 08:25:39;;;;;;;2.22;1.98;;;21.50;99.90;;;;;;5066914;28;20036;-73
2023/07/31 08:28:05;;;;;;;3.00;2.10;;;19.80;99.90;;;;;;5080741;28;20033;-72
2023/07/31 08:30:33;;;;;;;4.00;2.15;;;20.00;99.90;;;;;;5083818;28;20062;-72
2023/07/31 08:32:59;;;;;;;4.88;1.90;;;19.50;99.90;;;;;;5076734;28;20031;-72
2023/07/31 08:35:26;;;;;;;3.10;2.00;;;20.90;99.90;;;;;;5092388;28;20037;-73
2023/07/31 08:37:51;;;;;;;3.35;2.13;;;21.70;99.90;;;;;;5052109;28;20223;-73
2023/07/31 08:40:17;;;;;;;4.40;2.00;;;21.80;99.90;;;;;;5070577;28;20062;-72
2023/07/31 08:42:48;;;;;;;2.30;1.85;;;21.40;99.90;;;;;;5094566;28;20222;-71
2023/07/31 08:45:18;;;;;;;3.33;1.92;;;20.00;99.90;;;;;;5091273;28;20036;-70
2023/07/31 08:47:49;;;;;;;2.40;1.75;;;20.10;99.90;;;;;;5096671;28;20450;-72
2023/07/31 08:50:18;;;;;;;2.35;1.50;;;19.60;99.90;;;;;;5090800;28;20039;-70
2023/07/31 08:52:45;;;;;;;2.17;1.70;;;19.90;99.90;;;;;;5089582;28;20271;-71
2023/07/31 08:55:11;;;;;;;2.10;1.50;;;19.70;99.90;;;;;;5091261;28;20031;-71
2023/07/31 08:57:38;;;;;;;3.13;1.70;;;21.50;99.90;;;;;;5092909;28;20036;-71
2023/07/31 09:00:05;;;;;;;1.77;1.38;;;21.70;99.90;;;;;;5078779;28;20032;-71
2023/07/31 09:02:41;;;;;;;2.50;1.70;;;22.10;99.90;;;;;;5091264;28;20092;-72
2023/07/31 09:05:07;;;;;;;2.95;1.65;;;19.40;99.90;;;;;;5090218;28;20134;-72
2023/07/31 09:07:37;;;;;;;3.28;1.50;;;22.00;99.90;;;;;;5061185;28;20028;-71
2023/07/31 09:10:04;;;;;;;1.77;1.42;;;20.60;99.90;;;;;;5088081;28;20032;-71
2023/07/31 09:12:30;;;;;;;3.88;1.67;;;20.30;99.90;;;;;;5093168;28;20183;-71
2023/07/31 09:15:00;;;;;;;1.73;1.38;;;20.70;99.90;;;;;;5076163;28;20038;-71
2023/07/31 09:17:34;;;;;;;1.75;1.20;;;20.60;99.90;;;;;;5091231;28;20059;-71
2023/07/31 09:20:21;;;;;;;2.03;1.55;;;20.60;99.90;;;;;;5089630;28;20031;-70
2023/07/31 09:22:48;;;;;;;1.70;1.10;;;21.30;99.90;;;;;;5089084;28;20032;-71
2023/07/31 09:25:26;;;;;;;1.30;1.20;;;21.90;99.90;;;;;;5091874;28;20049;-71
2023/07/31 09:28:00;;;;;;;1.15;1.05;;;22.50;99.90;;;;;;5083299;28;20032;-71
2023/07/31 09:30:26;;;;;;;1.45;1.33;;;22.60;99.90;;;;;;5075303;28;20035;-71
2023/07/31 09:33:02;;;;;;;1.42;1.20;;;20.00;99.90;;;;;;5054852;28;20028;-71
2023/07/31 09:35:32;;;;;;;1.70;1.20;;;21.30;99.90;;;;;;5071423;28;20078;-71
2023/07/31 09:38:07;;;;;;;2.47;1.40;;;22.50;99.90;;;;;;5091347;28;20083;-70
2023/07/31 09:40:35;;;;;;;1.40;1.20;;;20.00;99.90;;;;;;5086534;28;20099;-71
2023/07/31 09:43:02;;;;;;;1.40;1.10;;;22.50;99.90;;;;;;5064136;28;20056;-70
2023/07/31 09:45:29;;;;;;;1.40;1.10;;;21.60;99.90;;;;;;5099349;28;20070;-70
2023/07/31 09:47:56;;;;;;;1.30;1.17;;;20.70;99.90;;;;;;5082469;28;20044;-70
2023/07/31 09:50:24;;;;;;;4.72;1.30;;;20.00;99.90;;;;;;5096837;28;20040;-71
2023/07/31 09:52:51;;;;;;;2.28;1.17;;;22.10;99.90;;;;;;5098320;28;20088;-71
2023/07/31 09:55:18;;;;;;;1.42;1.00;;;20.10;99.90;;;;;;5079561;28;20040;-71
2023/07/31 09:57:48;;;;;;;2.53;1.10;;;20.10;99.90;;;;;;5099932;28;20081;-71
2023/07/31 10:00:17;;;;;;;0.95;0.80;;;20.20;99.90;;;;;;5097894;28;20036;-71
2023/07/31 10:02:47;;;;;;;1.08;0.80;;;22.00;99.90;;;;;;5093979;28;20025;-71
2023/07/31 10:05:17;;;;;;;1.00;0.90;;;22.20;99.90;;;;;;5095572;28;20028;-71
2023/07/31 10:07:55;;;;;;;1.02;0.80;;;20.50;99.90;;;;;;5089174;28;20091;-71
2023/07/31 10:10:23;;;;;;;1.00;0.60;;;22.50;99.90;;;;;;5083961;28;20025;-71
2023/07/31 10:12:50;;;;;;;0.80;0.70;;;20.00;99.90;;;;;;5093856;28;20040;-72
2023/07/31 10:15:16;;;;;;;1.10;0.80;;;23.00;99.90;;;;;;5090821;28;20031;-71
2023/07/31 10:17:41;;;;;;;0.80;0.70;;;21.30;99.90;;;;;;5098273;28;20059;-71
2023/07/31 10:20:08;;;;;;;0.65;0.60;;;22.10;99.90;;;;;;5099467;28;20040;-71
2023/07/31 10:22:34;;;;;;;0.70;0.70;;;20.10;99.90;;;;;;5081593;28;20024;-71
2023/07/31 10:25:01;;;;;;;4.15;0.70;;;21.00;99.90;;;;;;5099201;28;20070;-71
2023/07/31 10:27:27;;;;;;;0.60;0.60;;;20.20;99.90;;;;;;5078577;28;20126;-71
2023/07/31 10:29:55;;;;;;;2.03;0.80;;;21.70;99.90;;;;;;5074230;28;20043;-72
2023/07/31 10:32:22;;;;;;;1.00;0.70;;;23.00;99.90;;;;;;5086843;28;20039;-72
2023/07/31 10:34:49;;;;;;;1.33;1.00;;;23.20;99.90;;;;;;5044887;28;20071;-73
2023/07/31 10:37:27;;;;;;;1.23;0.60;;;22.20;99.90;;;;;;5082638;28;20098;-72
2023/07/31 10:39:58;;;;;;;1.35;0.70;;;23.00;99.90;;;;;;5098283;28;20183;-72
2023/07/31 10:42:41;;;;;;;2.28;0.77;;;20.10;99.90;;;;;;5076097;28;20032;-71
2023/07/31 10:45:10;;;;;;;1.63;1.17;;;21.50;99.90;;;;;;5108030;28;20103;-71
2023/07/31 10:47:45;;;;;;;0.75;0.70;;;23.20;99.90;;;;;;5096152;28;20040;-71
2023/07/31 10:50:23;;;;;;;1.20;0.60;;;23.40;99.90;;;;;;5079296;28;20070;-71
2023/07/31 10:52:57;;;;;;;0.98;0.52;;;22.00;99.90;;;;;;5091323;28;20086;-71
2023/07/31 10:55:33;;;;;;;0.57;0.50;;;20.50;99.90;;;;;;5056802;28;20040;-71
2023/07/31 10:58:06;;;;;;;0.40;0.40;;;22.70;99.90;;;;;;5087476;28;20415;-71
2023/07/31 11:00:32;;;;;;;0.50;0.50;;;23.80;99.90;;;;;;5102656;28;20255;-70
2023/07/31 11:03:02;;;;;;;0.47;0.47;;;21.10;99.90;;;;;;5081988;28;20035;-71
2023/07/31 11:05:43;;;;;;;0.60;0.60;;;21.70;99.90;;;;;;5094661;28;20303;-70
2023/07/31 11:08:23;;;;;;;1.73;0.60;;;22.50;99.90;;;;;;5083129;28;20103;-71
2023/07/31 11:11:06;;;;;;;0.68;0.60;;;23.80;99.90;;;;;;5096657;28;20030;-72
2023/07/31 11:13:56;;;;;;;0.40;0.40;;;21.00;99.90;;;;;;5076640;28;20099;-71
2023/07/31 11:16:23;;;;;;;0.85;0.60;;;20.70;99.90;;;;;;5092657;28;20752;-71
2023/07/31 11:18:51;;;;;;;1.33;0.60;;;23.00;99.90;;;;;;5078084;28;20040;-71
2023/07/31 11:21:20;;;;;;;0.68;0.63;;;20.50;99.90;;;;;;5098534;28;20024;-72
2023/07/31 11:23:48;;;;;;;1.23;0.68;;;23.50;99.90;;;;;;5095595;28;20032;-71
2023/07/31 11:26:14;;;;;;;1.58;0.70;;;20.80;99.90;;;;;;5094097;28;20035;-71
2023/07/31 11:28:42;;;;;;;1.75;1.20;;;21.90;99.90;;;;;;5099311;28;20036;-71
2023/07/31 11:31:10;;;;;;;2.47;1.00;;;20.50;99.90;;;;;;5096704;28;20053;-70
2023/07/31 11:33:36;;;;;;;2.30;1.10;;;21.10;99.90;;;;;;5098101;28;20044;-70
2023/07/31 11:36:02;;;;;;;1.55;1.00;;;21.10;99.90;;;;;;5080275;28;20057;-70
2023/07/31 11:38:33;;;;;;;1.35;0.98;;;22.70;99.90;;;;;;5061456;28;20103;-70
2023/07/31 11:41:02;;;;;;;1.00;0.95;;;23.40;99.90;;;;;;5093654;28;20024;-71
2023/07/31 11:43:28;;;;;;;1.40;0.93;;;24.20;99.90;;;;;;5092252;28;20039;-70
2023/07/31 11:45:59;;;;;;;1.15;1.05;;;22.10;99.90;;;;;;5094716;28;20038;-71
2023/07/31 11:48:33;;;;;;;1.17;1.00;;;23.30;99.90;;;;;;5070691;28;20047;-70
2023/07/31 11:51:03;;;;;;;;;;;23.90;99.90;;;;;;5095652;28;20082;-71
2023/07/31 11:53:50;;;;;;;1.73;0.80;;;22.90;99.90;;;;;;5075149;28;19916;-71
2023/07/31 11:56:19;;;;;;;5.97;1.00;;;22.00;99.90;;;;;;5075506;28;20060;-72
2023/07/31 11:58:51;;;;;;;1.65;0.98;;;23.00;99.90;;;;;;5092705;28;20048;-72
2023/07/31 12:01:19;;;;;;;1.67;1.00;;;22.10;99.90;;;;;;5093336;28;20129;-71
2023/07/31 12:03:46;;;;;;;2.10;0.88;;;22.30;99.90;;;;;;5091710;28;20035;-71
2023/07/31 12:06:12;;;;;;;2.78;1.05;;;22.80;99.90;;;;;;5092550;28;20190;-70
2023/07/31 12:08:38;;;;;;;1.30;1.00;;;24.10;99.90;;;;;;5089318;28;20036;-70
2023/07/31 12:11:05;;;;;;;1.30;0.95;;;20.70;99.90;;;;;;5097705;28;20059;-71
2023/07/31 12:13:32;;;;;;;2.13;1.17;;;21.10;99.90;;;;;;5096507;28;20032;-71
2023/07/31 12:16:01;;;;;;;1.73;1.00;;;23.20;99.90;;;;;;5095985;28;20040;-71
2023/07/31 12:18:29;;;;;;;2.30;1.10;;;20.70;99.90;;;;;;5099720;28;20059;-71
2023/07/31 12:20:56;;;;;;;1.35;1.10;;;20.80;99.90;;;;;;5083775;28;20035;-70
2023/07/31 12:23:28;;;;;;;1.65;1.20;;;24.30;99.90;;;;;;5101726;28;20077;-70
2023/07/31 12:26:01;;;;;;;1.55;1.45;;;22.00;99.90;;;;;;5098015;28;20047;-72
2023/07/31 12:28:27;;;;;;;3.13;1.13;;;23.10;99.90;;;;;;5099841;28;20032;-71
2023/07/31 12:30:58;;;;;;;1.95;1.40;;;21.00;99.90;;;;;;5101486;28;20032;-71
2023/07/31 12:33:24;;;;;;;2.13;1.40;;;23.10;99.90;;;;;;5101525;28;20093;-70
2023/07/31 12:35:49;;;;;;;1.30;1.20;;;23.90;99.90;;;;;;5092613;28;20269;-71
2023/07/31 12:38:15;;;;;;;2.10;1.30;;;22.50;99.90;;;;;;5066095;28;20207;-70
2023/07/31 12:40:41;;;;;;;2.17;1.15;;;21.60;99.90;;;;;;5100347;28;20298;-70
2023/07/31 12:43:08;;;;;;;1.50;1.25;;;22.80;99.90;;;;;;5095890;28;20031;-71
2023/07/31 12:45:34;;;;;;;1.95;1.23;;;24.20;99.90;;;;;;5095795;28;20028;-71
2023/07/31 12:48:01;;;;;;;3.05;1.30;;;21.60;99.90;;;;;;5063056;28;20036;-71
2023/07/31 12:50:27;;;;;;;2.28;1.00;;;21.00;99.90;;;;;;5086916;28;20063;-71
2023/07/31 12:52:56;;;;;;;1.50;1.40;;;23.30;99.90;;;;;;5059734;28;20400;-71
2023/07/31 12:55:22;;;;;;;1.65;1.20;;;22.70;99.90;;;;;;5062334;28;20071;-71
2023/07/31 12:57:49;;;;;;;3.58;1.20;;;24.70;99.90;;;;;;5077689;28;20039;-71
2023/07/31 13:00:15;;;;;;;1.83;1.52;;;21.40;99.90;;;;;;5079265;28;20331;-71
2023/07/31 13:02:40;;;;;;;1.50;1.40;;;22.00;99.90;;;;;;5079411;28;20043;-72
2023/07/31 13:05:06;;;;;;;2.40;1.48;;;24.80;99.90;;;;;;5055928;28;20036;-71
2023/07/31 13:07:32;;;;;;;3.75;1.42;;;23.50;99.90;;;;;;5059038;28;20025;-71